Time;durP1;ratioP1;P1;durP2;ratioP2;P2;SDS_P1;SDS_P2;PMS_P1;PMS_P2;Temp;Humidity;BMP_temperature;BMP_pressure;BME280_temperature;BME280_humidity;BME280_pressure;Samples;Min_cycle;Max_cycle;Signal;HPM_P1;HPM_P2
2023/04/12 00:01:48;;;;;;;3.40;2.20;;;;;;;13.74;39.92;96951.25;5041060;28;20490;-69
2023/04/12 00:04:15;;;;;;;5.33;2.10;;;;;;;13.74;40.73;96948.63;5031052;28;20553;-70
2023/04/12 00:06:41;;;;;;;6.33;2.10;;;;;;;13.72;41.14;96945.38;5033603;28;20192;-70
2023/04/12 00:09:07;;;;;;;4.63;2.07;;;;;;;13.68;40.91;96937.00;5044853;28;20479;-70
2023/04/12 00:11:33;;;;;;;4.30;2.20;;;;;;;13.64;41.32;96938.38;5042327;28;20477;-69
2023/04/12 00:13:59;;;;;;;6.33;2.40;;;;;;;13.68;41.63;96931.72;5044961;28;20425;-69
2023/04/12 00:16:24;;;;;;;7.87;2.30;;;;;;;13.62;41.72;96935.09;5027913;28;20421;-69
2023/04/12 00:18:50;;;;;;;6.30;2.20;;;;;;;13.60;42.74;96929.16;5043334;28;20259;-70
2023/04/12 00:21:18;;;;;;;5.20;2.23;;;;;;;13.60;42.71;96932.66;5057988;28;20758;-70
2023/04/12 00:23:48;;;;;;;6.73;2.70;;;;;;;13.60;42.98;96930.00;5051676;28;20207;-73
2023/04/12 00:26:14;;;;;;;5.00;2.43;;;;;;;13.55;43.38;96923.63;5050563;28;20426;-70
2023/04/12 00:28:40;;;;;;;6.63;2.40;;;;;;;13.57;44.09;96927.72;5049555;28;20440;-69
2023/04/12 00:31:06;;;;;;;5.43;2.20;;;;;;;13.55;44.56;96919.19;5049743;28;20295;-70
2023/04/12 00:33:33;;;;;;;5.27;2.27;;;;;;;13.17;46.45;96925.19;5041820;28;20483;-69
2023/04/12 00:35:58;;;;;;;8.53;2.47;;;;;;;13.12;48.14;96922.28;5045486;28;20681;-71
2023/04/12 00:38:24;;;;;;;7.13;2.50;;;;;;;13.14;48.24;96916.84;5046141;28;20581;-69
2023/04/12 00:40:49;;;;;;;4.63;2.10;;;;;;;13.10;48.71;96912.94;5060895;28;20850;-68
2023/04/12 00:43:17;;;;;;;7.00;2.47;;;;;;;13.09;49.36;96911.31;5053714;28;20242;-69
2023/04/12 00:45:43;;;;;;;7.77;2.50;;;;;;;13.06;50.22;96899.28;5041033;28;20187;-69
2023/04/12 00:48:09;;;;;;;4.10;2.47;;;;;;;13.14;49.92;96904.50;5041421;28;20796;-69
2023/04/12 00:50:34;;;;;;;10.07;2.70;;;;;;;13.15;50.83;96900.06;5039858;28;20528;-69
2023/04/12 00:53:02;;;;;;;5.20;1.93;;;;;;;13.14;50.64;96895.78;5043238;28;20192;-70
2023/04/12 00:55:27;;;;;;;6.63;2.73;;;;;;;13.17;51.04;96890.19;5051549;28;20200;-69
2023/04/12 00:57:53;;;;;;;6.87;3.00;;;;;;;13.09;51.33;96885.00;5042531;28;20424;-69
2023/04/12 01:00:18;;;;;;;8.50;3.27;;;;;;;13.05;51.76;96880.06;5046103;28;20742;-68
2023/04/12 01:02:49;;;;;;;5.30;2.20;;;;;;;13.05;51.88;96882.69;5043183;28;20211;-68
2023/04/12 01:05:23;;;;;;;9.50;2.37;;;;;;;13.09;51.79;96882.38;5056489;28;20207;-69
2023/04/12 01:08:00;;;;;;;5.73;2.93;;;;;;;13.05;52.22;96879.25;5056477;28;20432;-69
2023/04/12 01:10:40;;;;;;;8.00;2.50;;;;;;;13.08;52.30;96881.53;5044146;28;20919;-69
2023/04/12 01:13:19;;;;;;;5.53;2.40;;;;;;;13.12;52.78;96879.34;5042593;28;21048;-68
2023/04/12 01:15:53;;;;;;;7.23;2.53;;;;;;;13.00;53.06;96871.06;5046575;28;20418;-69
2023/04/12 01:18:21;;;;;;;5.83;2.40;;;;;;;12.84;53.68;96866.75;5049916;28;20516;-68
2023/04/12 01:21:06;;;;;;;8.57;2.60;;;;;;;12.81;54.00;96877.63;5053925;28;20452;-71
2023/04/12 01:23:53;;;;;;;5.33;2.33;;;;;;;12.82;54.32;96869.53;5047477;28;20544;-68
2023/04/12 01:26:40;;;;;;;5.03;2.30;;;;;;;12.80;54.08;96863.63;5048296;28;20429;-69
2023/04/12 01:29:15;;;;;;;9.30;2.87;;;;;;;12.69;55.17;96859.63;5043753;28;20965;-71
2023/04/12 01:31:51;;;;;;;7.37;2.40;;;;;;;12.65;55.58;96863.56;5056472;28;20456;-70
2023/04/12 01:34:16;;;;;;;5.83;2.27;;;;;;;12.59;56.16;96856.41;5048760;28;20430;-70
2023/04/12 01:36:42;;;;;;;4.63;2.30;;;;;;;12.69;56.03;96848.25;5030614;28;20441;-70
2023/04/12 01:39:08;;;;;;;4.47;2.67;;;;;;;12.70;56.13;96849.91;5044286;28;20190;-69
2023/04/12 01:41:38;;;;;;;4.80;2.20;;;;;;;12.44;56.79;96840.53;5038561;28;20951;-69
2023/04/12 01:44:03;;;;;;;3.10;1.93;;;;;;;12.36;57.26;96838.75;5043904;28;20207;-68
2023/04/12 01:46:31;;;;;;;7.07;2.27;;;;;;;12.29;57.20;96832.56;5042407;28;20975;-69
2023/04/12 01:48:57;;;;;;;3.00;2.20;;;;;;;12.24;57.98;96827.00;5028568;28;20218;-69
2023/04/12 01:51:44;;;;;;;5.23;2.10;;;;;;;12.27;57.80;96824.03;5046119;28;20452;-69
2023/04/12 01:54:12;;;;;;;10.50;2.30;;;;;;;12.14;58.41;96820.16;5050637;28;20418;-69
2023/04/12 01:56:41;;;;;;;4.73;2.50;;;;;;;12.07;59.21;96821.84;5047761;28;20422;-68
2023/04/12 01:59:09;;;;;;;4.70;2.20;;;;;;;12.00;58.92;96807.75;5052824;28;20783;-69
2023/04/12 02:01:34;;;;;;;6.33;2.40;;;;;;;11.97;59.21;96808.06;5041815;28;20498;-69
2023/04/12 02:04:00;;;;;;;4.63;2.37;;;;;;;11.90;59.08;96801.84;5052479;28;20456;-70
2023/04/12 02:06:26;;;;;;;5.40;2.60;;;;;;;11.89;59.46;96802.84;5031222;28;20179;-69
2023/04/12 02:09:02;;;;;;;7.70;2.40;;;;;;;11.84;59.79;96804.16;5037100;28;20487;-69
2023/04/12 02:11:28;;;;;;;10.83;3.07;;;;;;;11.88;59.77;96791.53;5049324;28;20285;-68
2023/04/12 02:13:53;;;;;;;8.83;2.60;;;;;;;11.87;59.68;96787.25;5051464;28;20902;-69
2023/04/12 02:16:19;;;;;;;4.30;2.70;;;;;;;11.79;59.89;96780.22;5046552;28;20508;-69
2023/04/12 02:18:46;;;;;;;6.50;2.60;;;;;;;11.87;60.22;96781.19;5049119;28;20349;-69
2023/04/12 02:21:11;;;;;;;3.57;2.80;;;;;;;11.73;60.73;96777.47;5050964;28;20278;-68
2023/04/12 02:23:37;;;;;;;4.60;2.47;;;;;;;11.79;60.68;96774.16;5038001;28;20464;-69
2023/04/12 02:26:02;;;;;;;4.33;2.37;;;;;;;11.83;60.72;96765.78;5046801;28;20183;-68
2023/04/12 02:28:28;;;;;;;7.03;2.90;;;;;;;11.74;60.73;96753.66;5054904;28;20740;-69
2023/04/12 02:30:54;;;;;;;7.70;2.57;;;;;;;11.61;61.29;96750.75;5052710;28;20218;-68
2023/04/12 02:33:20;;;;;;;5.67;2.67;;;;;;;11.58;61.62;96759.78;5044365;28;20183;-69
2023/04/12 02:35:46;;;;;;;6.20;2.30;;;;;;;11.63;61.40;96748.78;5038514;28;20175;-68
2023/04/12 02:38:12;;;;;;;3.73;2.53;;;;;;;11.60;61.66;96749.94;5045716;28;20516;-69
2023/04/12 02:40:39;;;;;;;6.83;2.90;;;;;;;11.68;61.93;96741.22;5048389;28;20503;-69
2023/04/12 02:43:05;;;;;;;6.30;2.70;;;;;;;11.72;61.63;96737.25;5044605;28;20679;-70
2023/04/12 02:45:31;;;;;;;9.10;2.60;;;;;;;11.76;61.49;96738.56;5051918;28;20438;-67
2023/04/12 02:47:56;;;;;;;7.13;2.10;;;;;;;11.68;61.96;96728.91;5041292;28;20445;-69
2023/04/12 02:50:21;;;;;;;5.33;2.63;;;;;;;11.73;61.79;96725.78;5048600;28;20207;-70
2023/04/12 02:52:47;;;;;;;6.10;2.47;;;;;;;11.75;62.20;96721.16;5046263;28;20718;-68
2023/04/12 02:55:12;;;;;;;5.53;2.70;;;;;;;11.74;61.67;96705.59;5054013;28;20856;-68
2023/04/12 02:57:38;;;;;;;8.10;2.50;;;;;;;11.72;61.75;96708.38;5034057;28;20262;-69
2023/04/12 03:00:22;;;;;;;4.60;2.30;;;;;;;11.72;61.79;96703.13;5027157;28;20183;-69
2023/04/12 03:02:50;;;;;;;6.37;2.57;;;;;;;11.65;62.25;96696.94;5048509;28;20183;-69
2023/04/12 03:05:16;;;;;;;6.00;2.77;;;;;;;11.66;62.00;96696.75;5050812;28;21022;-68
2023/04/12 03:07:42;;;;;;;5.10;2.87;;;;;;;11.53;62.11;96694.69;5047491;28;20454;-68
2023/04/12 03:10:10;;;;;;;4.50;2.70;;;;;;;11.42;62.73;96676.72;5039398;28;20486;-68
2023/04/12 03:12:35;;;;;;;7.00;2.60;;;;;;;11.46;62.75;96675.41;5044569;28;20207;-69
2023/04/12 03:15:01;;;;;;;4.33;2.60;;;;;;;11.42;62.84;96662.75;5051558;28;20456;-68
2023/04/12 03:17:26;;;;;;;4.53;2.40;;;;;;;11.44;63.03;96664.25;5048726;28;20594;-68
2023/04/12 03:19:52;;;;;;;3.00;2.67;;;;;;;11.48;62.62;96657.66;5050640;28;20178;-68
2023/04/12 03:22:17;;;;;;;6.57;2.90;;;;;;;11.49;62.71;96650.59;5036593;28;22832;-69
2023/04/12 03:24:45;;;;;;;10.33;3.00;;;;;;;11.52;62.83;96648.44;5035509;28;20207;-69
2023/04/12 03:27:10;;;;;;;4.20;2.63;;;;;;;11.55;62.96;96649.09;5041741;28;20183;-68
2023/04/12 03:29:36;;;;;;;4.10;2.40;;;;;;;11.59;62.72;96637.28;5039125;28;20477;-69
2023/04/12 03:32:01;;;;;;;6.23;2.80;;;;;;;11.56;62.66;96637.63;5046728;28;20702;-68
2023/04/12 03:34:31;;;;;;;7.50;3.10;;;;;;;11.54;62.69;96632.53;5038933;28;20179;-68
2023/04/12 03:37:01;;;;;;;5.33;2.80;;;;;;;11.59;63.08;96634.66;5045616;28;20236;-68
2023/04/12 03:39:26;;;;;;;4.13;2.40;;;;;;;11.51;62.72;96631.06;5039069;28;21143;-70
2023/04/12 03:41:52;;;;;;;3.00;2.30;;;;;;;11.53;62.52;96628.25;5042302;28;20469;-70
2023/04/12 03:44:18;;;;;;;4.37;2.80;;;;;;;11.50;62.93;96624.19;5039316;28;20261;-69
2023/04/12 03:46:43;;;;;;;3.43;2.40;;;;;;;11.51;62.80;96617.94;5036183;28;20523;-69
2023/04/12 03:49:08;;;;;;;3.33;2.67;;;;;;;11.40;63.23;96620.16;5037842;28;20194;-71
2023/04/12 03:51:34;;;;;;;5.20;2.77;;;;;;;11.43;63.26;96612.75;5029546;28;20202;-70
2023/04/12 03:54:01;;;;;;;3.53;2.80;;;;;;;11.44;63.51;96606.53;5044319;28;20179;-71
2023/04/12 03:56:27;;;;;;;7.77;3.07;;;;;;;11.42;63.76;96608.50;5042889;28;20191;-69
2023/04/12 03:58:53;;;;;;;3.80;2.70;;;;;;;11.33;63.89;96591.16;5058491;28;20471;-70
2023/04/12 04:01:18;;;;;;;4.47;2.43;;;;;;;11.37;64.04;96592.44;5042736;28;20209;-68
2023/04/12 04:03:44;;;;;;;7.53;3.30;;;;;;;11.43;63.98;96591.75;5035744;28;20821;-71
2023/04/12 04:06:10;;;;;;;6.00;3.30;;;;;;;11.48;63.90;96594.66;5048391;28;20876;-67
2023/04/12 04:08:36;;;;;;;5.63;2.90;;;;;;;11.55;64.00;96588.75;5049781;28;20183;-69
2023/04/12 04:11:01;;;;;;;6.00;3.20;;;;;;;11.50;63.55;96589.28;5044450;28;21326;-69
2023/04/12 04:13:27;;;;;;;4.47;3.20;;;;;;;11.41;64.00;96580.63;5038708;28;20423;-69
2023/04/12 04:16:03;;;;;;;4.50;2.70;;;;;;;11.42;64.12;96578.81;5047563;28;20191;-69
2023/04/12 04:18:28;;;;;;;6.57;3.07;;;;;;;11.44;63.86;96572.41;5025443;28;20260;-69
2023/04/12 04:20:54;;;;;;;4.40;2.80;;;;;;;11.41;63.76;96567.50;5035045;28;20485;-69
2023/04/12 04:23:21;;;;;;;9.70;3.37;;;;;;;11.37;64.39;96555.72;5041998;28;20190;-69
2023/04/12 04:25:46;;;;;;;4.40;3.23;;;;;;;11.34;64.25;96554.25;5036750;28;20190;-69
2023/04/12 04:28:14;;;;;;;4.87;3.90;;;;;;;11.39;64.90;96551.13;5035402;28;20836;-68
2023/04/12 04:30:40;;;;;;;9.07;3.40;;;;;;;11.36;64.63;96548.84;5029420;28;20546;-69
2023/04/12 04:33:06;;;;;;;10.47;3.83;;;;;;;11.38;64.69;96549.47;5044102;28;20504;-70
2023/04/12 04:35:32;;;;;;;6.90;3.27;;;;;;;11.39;64.65;96538.00;5042580;28;20191;-70
2023/04/12 04:37:57;;;;;;;7.07;3.03;;;;;;;11.44;64.67;96542.72;5037206;28;20495;-70
2023/04/12 04:40:23;;;;;;;5.67;3.10;;;;;;;11.41;64.62;96536.03;5060099;28;20243;-69
2023/04/12 04:42:53;;;;;;;5.77;3.80;;;;;;;11.35;64.78;96537.53;5054447;28;20183;-69
2023/04/12 04:45:26;;;;;;;5.10;3.37;;;;;;;11.44;64.53;96537.47;5045638;28;20481;-68
2023/04/12 04:47:52;;;;;;;4.80;2.87;;;;;;;11.41;64.05;96536.03;5038931;28;20501;-69
2023/04/12 04:50:18;;;;;;;9.70;3.13;;;;;;;11.48;64.43;96536.16;5037960;28;20437;-69
2023/04/12 04:52:43;;;;;;;5.70;3.07;;;;;;;11.26;64.38;96532.50;5044083;28;20925;-69
2023/04/12 04:55:09;;;;;;;3.47;3.00;;;;;;;11.30;64.59;96533.81;5045110;28;20190;-68
2023/04/12 04:57:35;;;;;;;6.27;3.70;;;;;;;11.26;64.23;96535.13;5044283;28;20218;-70
2023/04/12 05:00:09;;;;;;;6.57;4.20;;;;;;;11.31;64.63;96531.00;5044981;28;20218;-69
2023/04/12 05:02:35;;;;;;;9.07;3.67;;;;;;;11.33;64.87;96525.59;5041929;28;20429;-69
2023/04/12 05:05:01;;;;;;;7.80;3.50;;;;;;;11.25;65.02;96530.88;5054683;28;20457;-70
2023/04/12 05:07:26;;;;;;;4.17;3.60;;;;;;;11.32;64.92;96521.34;5033934;28;20418;-69
2023/04/12 05:09:52;;;;;;;3.80;3.50;;;;;;;11.33;65.06;96521.16;5028602;28;20194;-69
2023/04/12 05:12:17;;;;;;;6.07;3.50;;;;;;;11.34;64.99;96519.34;5049076;28;20244;-69
2023/04/12 05:14:43;;;;;;;4.70;3.43;;;;;;;11.34;65.03;96520.16;5052260;28;20704;-69
2023/04/12 05:17:08;;;;;;;6.10;3.63;;;;;;;11.30;64.73;96513.63;5048507;28;20294;-68
2023/04/12 05:19:34;;;;;;;5.27;3.10;;;;;;;11.33;64.82;96515.09;5049386;28;20282;-69
2023/04/12 05:21:59;;;;;;;5.40;3.37;;;;;;;11.26;64.97;96507.09;5043326;28;20206;-69
2023/04/12 05:24:24;;;;;;;4.73;3.20;;;;;;;11.32;65.20;96505.59;5042888;28;20203;-69
2023/04/12 05:26:50;;;;;;;8.80;3.60;;;;;;;11.21;65.52;96499.72;5052480;28;20187;-70
2023/04/12 05:29:16;;;;;;;4.30;3.10;;;;;;;11.25;65.00;96505.47;5049529;28;20187;-70
2023/04/12 05:31:41;;;;;;;6.63;3.17;;;;;;;11.12;65.74;96506.03;5044778;28;20225;-68
2023/04/12 05:34:07;;;;;;;6.93;3.30;;;;;;;11.22;65.49;96495.31;5044909;28;20182;-68
2023/04/12 05:36:33;;;;;;;7.50;3.33;;;;;;;11.24;65.66;96497.75;5050180;28;20182;-70
2023/04/12 05:38:58;;;;;;;8.70;3.00;;;;;;;11.16;65.90;96501.25;5039640;28;20190;-69
2023/04/12 05:41:24;;;;;;;4.33;3.23;;;;;;;11.12;66.07;96484.25;5041209;28;20527;-70
2023/04/12 05:43:49;;;;;;;6.50;3.47;;;;;;;11.18;66.03;96486.16;5045014;28;20344;-70
2023/04/12 05:46:15;;;;;;;4.13;2.90;;;;;;;11.17;66.41;96477.47;5045629;28;20614;-69
2023/04/12 05:48:40;;;;;;;4.40;3.20;;;;;;;11.22;66.18;96475.13;5026649;28;20179;-69
2023/04/12 05:51:05;;;;;;;6.20;2.70;;;;;;;11.19;66.18;96474.69;5042059;28;20287;-70
2023/04/12 05:53:31;;;;;;;2.67;2.47;;;;;;;10.94;66.61;96460.91;5041273;28;20207;-70
2023/04/12 05:55:57;;;;;;;5.73;3.00;;;;;;;10.99;67.00;96455.94;5039112;28;20194;-69
2023/04/12 05:58:23;;;;;;;2.77;2.57;;;;;;;10.96;67.00;96448.44;5042374;28;20652;-68
2023/04/12 06:00:48;;;;;;;5.00;2.80;;;;;;;10.99;67.04;96440.22;5037442;28;20448;-70
2023/04/12 06:03:14;;;;;;;5.27;2.50;;;;;;;10.89;67.16;96427.34;5048409;28;20260;-71
2023/04/12 06:05:40;;;;;;;4.43;2.90;;;;;;;10.72;67.66;96430.06;5041869;28;20187;-69
2023/04/12 06:08:05;;;;;;;5.17;2.50;;;;;;;10.81;68.12;96425.59;5033272;28;20194;-68
2023/04/12 06:10:31;;;;;;;3.47;3.00;;;;;;;10.97;67.51;96423.84;5054755;28;20579;-70
2023/04/12 06:12:56;;;;;;;3.30;2.60;;;;;;;11.07;67.23;96424.44;5051116;28;20244;-70
2023/04/12 06:15:22;;;;;;;5.20;3.10;;;;;;;11.08;66.88;96420.84;5051931;28;20237;-69
2023/04/12 06:17:49;;;;;;;6.47;2.73;;;;;;;11.15;66.81;96424.38;5041223;28;20183;-70
2023/04/12 06:20:15;;;;;;;4.83;2.27;;;;;;;11.16;67.02;96420.78;5044466;28;20218;-70
2023/04/12 06:22:40;;;;;;;4.70;2.87;;;;;;;11.20;66.79;96418.59;5038857;28;20422;-69
2023/04/12 06:25:07;;;;;;;3.77;2.73;;;;;;;11.16;66.65;96402.41;5039321;28;20746;-70
2023/04/12 06:27:32;;;;;;;3.73;2.63;;;;;;;11.12;67.17;96395.09;5037196;28;20270;-74
2023/04/12 06:29:58;;;;;;;4.63;2.57;;;;;;;11.23;66.89;96399.91;5018919;28;20509;-73
2023/04/12 06:32:23;;;;;;;5.43;3.60;;;;;;;11.12;67.19;96400.31;5033747;28;20199;-72
2023/04/12 06:34:49;;;;;;;2.60;2.20;;;;;;;11.28;66.68;96394.13;5034983;28;20180;-71
2023/04/12 06:37:14;;;;;;;9.10;3.23;;;;;;;11.34;66.70;96393.44;5040920;28;20195;-71
2023/04/12 06:39:40;;;;;;;4.60;2.70;;;;;;;11.38;66.70;96384.19;5030622;28;20194;-72
2023/04/12 06:42:05;;;;;;;4.10;3.23;;;;;;;11.35;66.77;96384.56;5028760;28;20203;-74
2023/04/12 06:44:32;;;;;;;2.83;2.40;;;;;;;11.26;67.03;96385.63;5029669;28;20203;-72
2023/04/12 06:46:58;;;;;;;7.40;2.70;;;;;;;11.40;66.60;96370.94;5032595;28;20191;-71
2023/04/12 06:49:24;;;;;;;3.30;2.97;;;;;;;11.38;66.98;96363.22;5016891;28;20436;-72
2023/04/12 06:51:50;;;;;;;3.63;2.60;;;;;;;11.37;66.83;96362.41;5031679;28;20491;-71
2023/04/12 06:54:16;;;;;;;4.33;3.10;;;;;;;11.42;67.05;96356.63;5025465;28;20431;-70
2023/04/12 06:56:41;;;;;;;4.83;3.03;;;;;;;11.40;67.21;96368.31;5037388;28;20851;-72
2023/04/12 06:59:07;;;;;;;3.70;2.60;;;;;;;11.47;67.05;96356.88;5044424;28;20229;-72
2023/04/12 07:01:32;;;;;;;3.77;2.93;;;;;;;11.53;67.04;96345.69;5039549;28;20210;-72
2023/04/12 07:03:58;;;;;;;2.60;2.23;;;;;;;11.61;66.75;96342.19;5046129;28;20462;-73
2023/04/12 07:06:23;;;;;;;2.70;2.50;;;;;;;11.60;66.72;96340.53;5021812;28;20176;-73
2023/04/12 07:08:49;;;;;;;2.67;2.07;;;;;;;11.77;66.58;96325.44;5028712;28;20191;-74
2023/04/12 07:11:14;;;;;;;2.97;1.90;;;;;;;11.69;65.88;96322.91;5033263;28;20203;-74
2023/04/12 07:13:43;;;;;;;2.70;2.20;;;;;;;11.48;66.46;96321.78;5027086;28;20182;-74
2023/04/12 07:16:08;;;;;;;4.00;2.30;;;;;;;11.59;66.86;96320.53;4999853;28;20649;-74
2023/04/12 07:18:34;;;;;;;8.13;2.80;;;;;;;11.62;66.59;96320.19;5030020;28;20513;-73
2023/04/12 07:21:00;;;;;;;3.40;2.73;;;;;;;11.65;66.74;96311.13;5027377;28;20242;-73
2023/04/12 07:23:26;;;;;;;3.30;2.37;;;;;;;11.50;67.07;96309.31;5034135;28;20667;-74
2023/04/12 07:25:51;;;;;;;2.50;2.30;;;;;;;11.62;66.78;96308.88;5046203;28;20221;-70
2023/04/12 07:28:18;;;;;;;5.10;2.83;;;;;;;11.79;66.73;96305.06;5033901;28;21036;-71
2023/04/12 07:30:43;;;;;;;3.80;2.60;;;;;;;11.85;66.66;96282.53;5033325;28;20215;-71
2023/04/12 07:33:08;;;;;;;3.70;2.20;;;;;;;12.00;66.20;96290.41;5030753;28;20542;-70
2023/04/12 07:35:34;;;;;;;2.90;2.63;;;;;;;11.97;66.37;96277.63;5035087;28;20269;-70
2023/04/12 07:38:03;;;;;;;4.80;2.20;;;;;;;12.09;65.92;96275.38;5032842;28;20310;-68
2023/04/12 07:40:29;;;;;;;4.03;2.30;;;;;;;12.04;66.13;96270.66;5033225;28;20203;-70
2023/04/12 07:42:54;;;;;;;3.27;2.40;;;;;;;12.10;65.50;96256.78;5038830;28;20421;-71
2023/04/12 07:45:20;;;;;;;2.50;2.10;;;;;;;12.00;66.01;96242.34;5036988;28;20557;-70
2023/04/12 07:47:46;;;;;;;2.73;1.70;;;;;;;11.98;66.04;96239.88;5033216;28;20191;-70
2023/04/12 07:50:13;;;;;;;2.70;2.27;;;;;;;12.03;66.12;96221.78;5039611;28;20995;-68
2023/04/12 07:52:38;;;;;;;4.13;2.20;;;;;;;12.17;66.43;96221.91;5034778;28;20187;-70
2023/04/12 07:55:04;;;;;;;2.60;2.37;;;;;;;12.16;66.28;96217.66;5044408;28;20432;-70
2023/04/12 07:57:30;;;;;;;5.23;2.57;;;;;;;12.11;66.65;96226.91;5041042;28;20194;-70
2023/04/12 07:59:56;;;;;;;2.90;2.60;;;;;;;12.24;66.25;96214.91;5039463;28;20187;-71
2023/04/12 08:02:24;;;;;;;2.50;2.30;;;;;;;12.27;66.25;96225.03;5055189;28;20429;-70
2023/04/12 08:04:53;;;;;;;3.00;2.13;;;;;;;12.36;65.81;96225.75;5037708;28;20290;-70
2023/04/12 08:07:21;;;;;;;2.50;2.20;;;;;;;12.38;66.52;96216.66;5041813;28;20468;-70
2023/04/12 08:09:46;;;;;;;2.80;2.00;;;;;;;12.39;66.25;96215.66;5038579;28;20430;-70
2023/04/12 08:12:12;;;;;;;2.63;2.40;;;;;;;12.37;66.35;96212.41;5040863;28;20976;-70
2023/04/12 08:14:37;;;;;;;2.60;2.40;;;;;;;12.45;65.96;96221.97;5060401;28;20183;-70
2023/04/12 08:17:03;;;;;;;4.53;2.70;;;;;;;12.39;66.21;96215.66;5042260;28;20191;-69
2023/04/12 08:19:28;;;;;;;2.90;2.60;;;;;;;12.43;66.01;96205.59;5053053;28;20179;-70
2023/04/12 08:21:54;;;;;;;2.77;2.57;;;;;;;12.39;66.30;96201.72;5059558;28;20271;-69
2023/04/12 08:24:19;;;;;;;4.73;2.53;;;;;;;12.39;66.62;96201.72;5049075;28;20735;-70
2023/04/12 08:26:45;;;;;;;2.33;1.93;;;;;;;12.56;65.92;96204.91;5049783;28;20258;-69
2023/04/12 08:29:11;;;;;;;2.80;2.43;;;;;;;12.65;66.58;96213.47;5049075;28;20183;-70
2023/04/12 08:31:37;;;;;;;9.93;6.20;;;;;;;12.73;66.39;96197.56;5040853;28;21041;-69
2023/04/12 08:34:02;;;;;;;6.30;2.27;;;;;;;12.74;65.89;96194.72;5042407;28;20186;-68
2023/04/12 08:36:28;;;;;;;6.07;2.80;;;;;;;12.72;65.67;96207.28;5041745;28;20206;-70
2023/04/12 08:38:57;;;;;;;3.73;3.40;;;;;;;12.59;66.11;96215.84;5049294;28;20256;-69
2023/04/12 08:41:23;;;;;;;4.30;3.20;;;;;;;12.78;66.07;96210.13;5049769;28;20273;-69
2023/04/12 08:43:49;;;;;;;7.37;2.57;;;;;;;12.68;65.76;96208.66;5064310;28;20867;-69
2023/04/12 08:46:15;;;;;;;3.70;2.70;;;;;;;12.82;66.10;96206.13;5042191;28;20249;-70
2023/04/12 08:48:43;;;;;;;4.70;3.00;;;;;;;12.88;66.34;96200.91;5050907;28;20468;-70
2023/04/12 08:51:12;;;;;;;3.03;2.83;;;;;;;12.80;66.17;96198.41;5054632;28;20480;-70
2023/04/12 08:53:38;;;;;;;3.07;2.80;;;;;;;12.86;66.35;96181.88;5052346;28;20803;-69
2023/04/12 08:56:06;;;;;;;2.43;2.20;;;;;;;12.87;65.97;96188.75;5044626;28;20422;-69
2023/04/12 08:58:31;;;;;;;5.23;2.63;;;;;;;13.06;66.11;96189.06;5052642;28;20555;-69
2023/04/12 09:00:57;;;;;;;3.93;2.23;;;;;;;13.03;66.37;96192.91;5043925;28;20449;-70
2023/04/12 09:03:23;;;;;;;4.83;2.30;;;;;;;13.05;66.01;96190.91;5048379;28;20195;-71
2023/04/12 09:05:48;;;;;;;5.47;2.37;;;;;;;12.96;65.66;96184.19;5043713;28;20446;-68
2023/04/12 09:08:15;;;;;;;5.30;2.30;;;;;;;13.01;65.71;96181.75;5046575;28;20552;-71
2023/04/12 09:10:41;;;;;;;4.77;2.50;;;;;;;12.93;65.42;96179.28;5049180;28;20210;-70
2023/04/12 09:13:07;;;;;;;2.80;2.03;;;;;;;13.13;65.48;96181.22;5053345;28;21106;-71
2023/04/12 09:15:33;;;;;;;4.00;2.80;;;;;;;13.32;65.47;96179.72;5043960;28;20204;-70
2023/04/12 09:18:09;;;;;;;4.50;2.53;;;;;;;13.32;65.22;96175.28;5049535;28;20425;-70
2023/04/12 09:20:36;;;;;;;7.90;2.60;;;;;;;13.31;65.31;96155.22;5039184;28;20501;-69
2023/04/12 09:23:17;;;;;;;4.43;2.10;;;;;;;13.21;65.71;96157.41;5038747;28;20417;-70
2023/04/12 09:25:47;;;;;;;4.53;2.50;;;;;;;13.48;65.63;96152.31;5044246;28;20461;-71
2023/04/12 09:28:29;;;;;;;4.07;2.40;;;;;;;13.51;65.88;96150.09;5041885;28;20425;-69
2023/04/12 09:30:58;;;;;;;3.20;2.27;;;;;;;13.76;65.01;96140.84;5038320;28;20537;-70
2023/04/12 09:33:35;;;;;;;8.20;2.67;;;;;;;13.84;65.55;96138.03;5038573;28;20429;-71
2023/04/12 09:36:08;;;;;;;4.30;2.33;;;;;;;14.08;64.84;96138.50;5027249;28;20498;-70
2023/04/12 09:38:35;;;;;;;5.80;2.40;;;;;;;14.10;64.72;96149.66;5042147;28;20429;-71
2023/04/12 09:41:18;;;;;;;4.37;2.20;;;;;;;13.98;63.73;96147.59;5051790;28;20436;-72
2023/04/12 09:43:43;;;;;;;2.10;1.90;;;;;;;13.97;63.67;96145.97;5031962;28;20472;-70
2023/04/12 09:46:13;;;;;;;3.20;1.90;;;;;;;14.02;63.18;96147.19;5046418;28;20765;-70
2023/04/12 09:48:39;;;;;;;3.77;1.97;;;;;;;14.09;63.33;96145.38;5040449;28;20218;-70
2023/04/12 09:51:05;;;;;;;6.20;2.50;;;;;;;14.02;62.76;96148.00;5030774;28;20453;-71
2023/04/12 09:53:33;;;;;;;3.50;2.20;;;;;;;14.07;63.01;96150.84;5042092;28;20426;-71
2023/04/12 09:56:03;;;;;;;4.50;2.30;;;;;;;14.20;63.23;96136.88;5052409;28;20513;-71
2023/04/12 09:58:31;;;;;;;4.97;2.63;;;;;;;14.13;61.68;96141.31;5040158;28;20491;-70
2023/04/12 10:01:00;;;;;;;9.23;2.23;;;;;;;13.93;62.62;96123.69;5042110;28;20446;-70
2023/04/12 10:03:26;;;;;;;3.63;2.20;;;;;;;14.28;61.87;96118.22;5049169;28;20930;-71
2023/04/12 10:05:54;;;;;;;6.10;2.10;;;;;;;14.46;61.94;96127.38;5043718;28;20860;-71
2023/04/12 10:08:23;;;;;;;8.50;2.20;;;;;;;14.61;62.49;96113.97;5059473;28;20988;-70
2023/04/12 10:10:48;;;;;;;5.13;2.23;;;;;;;14.49;61.93;96120.88;5052945;28;20452;-71
2023/04/12 10:13:15;;;;;;;4.03;2.07;;;;;;;14.53;61.30;96117.63;5053002;28;20429;-70
2023/04/12 10:15:40;;;;;;;6.20;2.27;;;;;;;14.59;60.85;96111.53;5048609;28;20187;-71
2023/04/12 10:18:06;;;;;;;4.33;2.20;;;;;;;14.72;60.87;96110.75;5051627;28;20932;-70
2023/04/12 10:20:31;;;;;;;4.90;2.60;;;;;;;14.87;61.69;96118.41;5051370;28;20586;-71
2023/04/12 10:23:00;;;;;;;3.57;2.37;;;;;;;15.05;60.98;96115.16;5030139;28;20192;-71
2023/04/12 10:25:26;;;;;;;5.43;2.17;;;;;;;15.06;61.00;96105.41;5056066;28;20215;-71
2023/04/12 10:27:52;;;;;;;3.60;2.27;;;;;;;15.18;61.33;96106.38;5055498;28;20417;-71
2023/04/12 10:30:24;;;;;;;3.50;1.90;;;;;;;15.16;60.83;96095.22;5037403;28;20433;-70
2023/04/12 10:33:01;;;;;;;3.40;1.73;;;;;;;15.39;60.59;96101.81;5044202;28;20198;-70
2023/04/12 10:35:28;;;;;;;5.33;2.27;;;;;;;15.26;60.00;96102.69;5042823;28;20426;-70
2023/04/12 10:38:01;;;;;;;2.73;1.87;;;;;;;15.29;59.00;96097.00;5050987;28;20995;-69
2023/04/12 10:40:33;;;;;;;2.93;1.77;;;;;;;15.58;58.90;96099.31;5047911;28;20438;-70
2023/04/12 10:43:27;;;;;;;3.40;1.70;;;;;;;15.79;59.07;96109.53;5048228;28;20457;-71
2023/04/12 10:45:53;;;;;;;4.10;2.10;;;;;;;15.84;58.18;96094.91;5050902;28;20498;-70
2023/04/12 10:48:31;;;;;;;3.00;1.70;;;;;;;16.00;57.81;96102.34;5052240;28;20422;-70
2023/04/12 10:51:23;;;;;;;3.93;1.90;;;;;;;15.80;57.37;96089.25;5043784;28;20286;-70
2023/04/12 10:53:52;;;;;;;3.10;1.80;;;;;;;15.81;57.05;96078.44;5050439;28;20436;-70
2023/04/12 10:56:33;;;;;;;6.33;2.00;;;;;;;15.81;56.55;96086.38;5038398;28;20434;-70
2023/04/12 10:59:08;;;;;;;1.83;1.70;;;;;;;15.75;56.66;96081.91;5030878;28;21162;-71
2023/04/12 11:01:34;;;;;;;3.47;2.03;;;;;;;16.15;56.89;96077.44;5047087;28;20440;-70
2023/04/12 11:04:06;;;;;;;2.03;1.50;;;;;;;16.37;55.13;96064.66;5048601;28;20457;-70
2023/04/12 11:07:02;;;;;;;5.63;1.60;;;;;;;16.33;55.52;96051.06;5040642;28;20810;-70
2023/04/12 11:09:33;;;;;;;5.10;1.80;;;;;;;16.28;54.51;96050.88;5042748;28;20413;-70
2023/04/12 11:12:05;;;;;;;5.23;1.87;;;;;;;16.64;54.54;96051.19;5054871;28;20444;-71
2023/04/12 11:14:44;;;;;;;3.07;1.50;;;;;;;16.70;53.89;96052.94;5057719;28;20436;-70
2023/04/12 11:17:13;;;;;;;3.20;1.70;;;;;;;17.17;54.00;96047.16;5046713;28;20421;-71
2023/04/12 11:19:40;;;;;;;3.40;1.30;;;;;;;17.25;52.24;96036.28;5050122;28;20417;-70
2023/04/12 11:22:08;;;;;;;2.90;1.50;;;;;;;16.81;52.64;96039.00;5039944;28;20985;-72
2023/04/12 11:24:43;;;;;;;3.77;1.73;;;;;;;17.00;52.33;96031.06;5042973;28;20493;-70
2023/04/12 11:27:09;;;;;;;3.40;1.10;;;;;;;17.15;51.82;96025.38;5039355;28;20950;-70
2023/04/12 11:29:35;;;;;;;2.50;1.00;;;;;;;16.83;51.19;96028.97;5040942;28;20426;-71
2023/04/12 11:32:04;;;;;;;1.90;1.13;;;;;;;16.70;51.65;96027.31;5043565;28;20227;-70
2023/04/12 11:34:33;;;;;;;2.60;1.20;;;;;;;16.84;52.22;96020.03;5040182;28;20186;-70
2023/04/12 11:36:59;;;;;;;1.93;1.10;;;;;;;17.09;51.44;96031.59;5041700;28;20457;-71